»·PEaware :: N333ZS KSBA-KSMX

N333ZS :: KSBA-KSMX

FLIGHT INFORMATION

Flight Status: Arrived
Operator: Privately registered:
United States
More flights under this callsign
Pilot: Judd H. (29974)
Aircraft: CESSNA 182 SKYLANE
(C182)
More flights by this aircraft type
Origin: KSBA Santa Barbara Mun
United States
Destination: KSMX Santa Maria Pub/Capt Hancock
United States
More flights between these airports :: More routes between these airports
Route: +HABUT
File this flight plan on PilotEdge
Remarks:
Altitude:
(Current/Filed)
6,000ft
Speed:
(Current/Filed)
120kts
Departed: 31-Jul-20 03:21 PM
Arrived: 31-Jul-20 03:49 PM
Distance/Time
Traveled:
41nm/0:28
Distance/Time
To Go:
Arrived

Flight Plot

Page will automatically refresh every two minutes.


Map Options




Map Legend


Flown Route
Filed Route
Departure Airport
Arrival Airport
Navaid (VOR, NDB)
Fix

Horizontal Profiles

Position Reports

Time Latitude Longitude Heading Altitude Ground
Speed
31-Jul-20 15:05 34.432345 -119.836024 70 13ft 0kts
31-Jul-20 15:06 34.432345 -119.836024 70 13ft 0kts
31-Jul-20 15:07 34.432345 -119.836024 70 13ft 0kts
31-Jul-20 15:08 34.432345 -119.836024 70 13ft 0kts
31-Jul-20 15:09 34.432345 -119.836023 70 13ft 0kts
31-Jul-20 15:10 34.432345 -119.836022 70 13ft 0kts
31-Jul-20 15:11 34.432346 -119.836021 70 13ft 0kts
31-Jul-20 15:12 34.432346 -119.836020 70 13ft 0kts
31-Jul-20 15:13 34.432346 -119.836019 70 13ft 0kts
31-Jul-20 15:14 34.432346 -119.836018 70 13ft 0kts
31-Jul-20 15:15 34.432347 -119.836017 70 13ft 0kts
31-Jul-20 15:16 34.432347 -119.836016 70 13ft 0kts
31-Jul-20 15:17 34.431987 -119.835741 215 13ft 8kts
31-Jul-20 15:18 34.430805 -119.839466 249 13ft 4kts
31-Jul-20 15:19 34.430712 -119.839728 248 13ft 0kts
31-Jul-20 15:20 34.426501 -119.838373 132 44ft 56kts
31-Jul-20 15:21 34.405089 -119.835531 180 661ft 94kts
31-Jul-20 15:22 34.391506 -119.857327 298 1277ft 115kts
31-Jul-20 15:24 34.406606 -119.895869 294 1598ft 132kts
31-Jul-20 15:25 34.417281 -119.935276 276 2185ft 119kts
31-Jul-20 15:26 34.421602 -119.974235 275 2765ft 114kts
31-Jul-20 15:27 34.424991 -120.012461 276 3317ft 115kts
31-Jul-20 15:28 34.425897 -120.051774 270 3727ft 113kts
31-Jul-20 15:29 34.426150 -120.088471 295 4115ft 104kts
31-Jul-20 15:30 34.447993 -120.109297 326 4551ft 99kts
31-Jul-20 15:31 34.471405 -120.126979 327 4947ft 98kts
31-Jul-20 15:32 34.494226 -120.145215 323 5338ft 97kts
31-Jul-20 15:33 34.516431 -120.163765 325 5726ft 96kts
31-Jul-20 15:34 34.539068 -120.180342 328 6114ft 94kts
31-Jul-20 15:35 34.561490 -120.195741 328 6507ft 92kts
31-Jul-20 15:36 34.585947 -120.214898 323 6506ft 113kts
31-Jul-20 15:37 34.611453 -120.236733 323 6167ft 101kts
31-Jul-20 15:38 34.633221 -120.255799 323 5511ft 98kts
31-Jul-20 15:39 34.657933 -120.271256 333 4746ft 102kts
31-Jul-20 15:40 34.684214 -120.286034 334 3944ft 104kts
31-Jul-20 15:40 34.708273 -120.291167 350 3276ft 107kts
31-Jul-20 15:41 34.736345 -120.296686 343 3105ft 102kts
31-Jul-20 15:43 34.768219 -120.308858 336 3102ft 103kts
31-Jul-20 15:43 34.790639 -120.319454 323 3098ft 103kts
31-Jul-20 15:44 34.810024 -120.344536 306 3067ft 104kts
31-Jul-20 15:45 34.833013 -120.374530 312 2388ft 133kts
31-Jul-20 15:46 34.860452 -120.404547 320 1393ft 125kts
31-Jul-20 15:47 34.882916 -120.434092 313 610ft 109kts
31-Jul-20 15:48 34.898837 -120.453067 315 264ft 23kts
31-Jul-20 15:49 34.900591 -120.452693 138 264ft 11kts
31-Jul-20 15:50 34.900519 -120.452615 136 264ft 0kts
31-Jul-20 15:51 34.898841 -120.450473 83 264ft 4kts
31-Jul-20 15:52 34.899961 -120.450794 313 264ft 0kts
31-Jul-20 15:53 34.899961 -120.450794 313 264ft 0kts
31-Jul-20 15:54 34.899961 -120.450794 313 264ft 0kts
31-Jul-20 15:55 34.899961 -120.450794 313 264ft 0kts
31-Jul-20 15:56 34.899961 -120.450794 313 264ft 0kts
31-Jul-20 15:57 34.899961 -120.450794 313 264ft 0kts
31-Jul-20 15:58 34.899961 -120.450794 313 264ft 0kts
31-Jul-20 15:59 34.899961 -120.450794 313 264ft 0kts
31-Jul-20 16:00 34.899961 -120.450794 313 264ft 0kts
31-Jul-20 16:01 34.899961 -120.450794 313 264ft 0kts
31-Jul-20 16:02 34.899961 -120.450794 313 264ft 0kts

Navigation Log

Ident Type
Flight plan parsing failed, navigation log unavailable